Time;durP1;ratioP1;P1;durP2;ratioP2;P2;SDS_P1;SDS_P2;PMS_P1;PMS_P2;Temp;Humidity;BMP_temperature;BMP_pressure;BME280_temperature;BME280_humidity;BME280_pressure;Samples;Min_cycle;Max_cycle;Signal;HPM_P1;HPM_P2
2022/11/06 00:01:17;;;;;;;;;;;10.80;99.90;;;;;;5041076;28;19920;-71
2022/11/06 00:03:43;;;;;;;;;;;;;;;;;;5057463;28;20603;-71
2022/11/06 00:08:55;;;;;;;;;;;10.60;99.90;;;;;;5057587;28;20041;-71
2022/11/06 00:11:20;;;;;;;;;;;10.60;99.90;;;;;;5067087;28;20421;-71
2022/11/06 00:13:46;;;;;;;;;;;10.60;99.90;;;;;;5077043;28;19928;-71
2022/11/06 00:16:12;;;;;;;;;;;;;;;;;;5095412;28;19920;-72
2022/11/06 00:18:38;;;;;;;;;;;10.50;99.90;;;;;;5076346;22;20301;-74
2022/11/06 00:21:06;;;;;;;;;;;10.50;99.90;;;;;;5036764;28;20414;-75
2022/11/06 00:23:32;;;;;;;;;;;10.60;99.90;;;;;;5054573;28;19921;-74
2022/11/06 00:25:57;;;;;;;;;;;10.30;99.90;;;;;;5054214;28;19921;-74
2022/11/06 00:28:23;;;;;;;;;;;10.40;99.90;;;;;;5053610;28;19943;-74
2022/11/06 00:30:48;;;;;;;;;;;10.60;99.90;;;;;;5053724;28;19927;-74
2022/11/06 00:33:14;;;;;;;;;;;10.50;99.90;;;;;;5037041;28;19967;-74
2022/11/06 00:35:39;;;;;;;;;;;10.50;99.90;;;;;;5053237;28;19995;-74
2022/11/06 00:38:05;;;;;;;;;;;10.50;99.90;;;;;;5036729;28;19925;-74
2022/11/06 00:40:30;;;;;;;;;;;10.50;99.90;;;;;;5053199;28;19975;-74
2022/11/06 00:42:56;;;;;;;;;;;10.40;99.90;;;;;;5053445;28;19975;-74
2022/11/06 00:45:22;;;;;;;;;;;10.40;99.90;;;;;;5052809;28;19921;-71
2022/11/06 00:47:47;;;;;;;;;;;10.50;99.90;;;;;;5053933;28;19920;-71
2022/11/06 00:50:13;;;;;;;;;;;10.60;99.90;;;;;;5053369;28;20331;-74
2022/11/06 00:52:38;;;;;;;;;;;10.50;99.90;;;;;;5054576;28;19975;-74
2022/11/06 00:55:04;;;;;;;;;;;10.50;99.90;;;;;;5052615;28;19921;-71
2022/11/06 00:57:29;;;;;;;;;;;10.60;99.90;;;;;;5053350;28;19921;-73
2022/11/06 00:59:55;;;;;;;;;;;10.60;99.90;;;;;;5054313;28;19939;-72
2022/11/06 01:02:20;;;;;;;;;;;10.50;99.90;;;;;;5054633;28;19920;-71
2022/11/06 01:04:46;;;;;;;;;;;10.30;99.90;;;;;;5053798;28;19932;-72
2022/11/06 01:07:11;;;;;;;;;;;10.40;99.90;;;;;;5053132;28;19920;-71
2022/11/06 01:09:37;;;;;;;;;;;10.50;99.90;;;;;;5052967;28;19921;-71
2022/11/06 01:12:03;;;;;;;;;;;10.40;99.90;;;;;;5054251;28;19935;-71
2022/11/06 01:14:29;;;;;;;;;;;10.50;99.90;;;;;;5052244;28;19920;-72
2022/11/06 01:16:55;;;;;;;;;;;;;;;;;;5052548;28;20287;-74
2022/11/06 01:19:21;;;;;;;;;;;10.60;99.90;;;;;;5052524;28;19931;-74
2022/11/06 01:21:47;;;;;;;;;;;10.60;99.90;;;;;;5052895;28;20486;-74
2022/11/06 01:24:13;;;;;;;;;;;;;;;;;;5052289;28;19947;-74
2022/11/06 01:26:38;;;;;;;;;;;10.50;99.90;;;;;;5052730;28;19921;-74
2022/11/06 01:29:05;;;;;;;;;;;10.50;99.90;;;;;;5052289;28;20468;-74
2022/11/06 01:31:31;;;;;;;;;;;10.60;99.90;;;;;;5052677;28;19967;-74
2022/11/06 01:33:58;;;;;;;;;;;10.10;99.90;;;;;;5051889;28;19928;-73
2022/11/06 01:36:23;;;;;;;;;;;10.50;99.90;;;;;;5052333;28;19928;-74
2022/11/06 01:38:50;;;;;;;;;;;10.50;99.90;;;;;;5052611;28;19925;-74
2022/11/06 01:41:16;;;;;;;;;;;;;;;;;;5052571;28;20070;-72
2022/11/06 01:43:41;;;;;;;;;;;10.30;99.90;;;;;;5053502;28;19994;-72
2022/11/06 01:46:07;;;;;;;;;;;10.50;99.90;;;;;;5051383;28;20556;-73
2022/11/06 01:48:33;;;;;;;;;;;10.30;99.90;;;;;;5035567;28;19944;-73
2022/11/06 01:50:58;;;;;;;;;;;10.30;99.90;;;;;;5044777;28;20004;-72
2022/11/06 01:53:24;;;;;;;;;;;10.40;99.90;;;;;;5031287;28;19928;-73
2022/11/06 01:55:51;;;;;;;;;;;10.50;99.90;;;;;;5031299;28;19936;-73
2022/11/06 01:58:18;;;;;;;;;;;10.30;99.90;;;;;;5033376;28;19961;-72
2022/11/06 02:00:44;;;;;;;;;;;10.40;99.90;;;;;;5032841;28;19975;-73
2022/11/06 02:03:11;;;;;;;;;;;10.30;99.90;;;;;;5052434;28;19920;-73
2022/11/06 02:05:37;;;;;;;;;;;10.40;99.90;;;;;;5051259;28;19975;-72
2022/11/06 02:08:03;;;;;;;;;;;10.60;99.90;;;;;;5035312;28;19921;-73
2022/11/06 02:10:29;;;;;;;;;;;10.50;99.90;;;;;;5051475;28;19928;-72
2022/11/06 02:13:13;;;;;;;;;;;10.60;99.90;;;;;;5051873;28;19921;-73
2022/11/06 02:15:39;;;;;;;;;;;10.40;99.90;;;;;;5052394;28;20355;-72
2022/11/06 02:18:10;;;;;;;;;;;10.40;99.90;;;;;;5051231;28;20011;-73
2022/11/06 02:20:36;;;;;;;;;;;;;;;;;;5052706;28;19982;-73
2022/11/06 02:23:21;;;;;;;;;;;10.50;99.90;;;;;;5051530;28;20514;-73
2022/11/06 02:26:11;;;;;;;;;;;10.50;99.90;;;;;;5050427;28;19929;-72
2022/11/06 02:28:52;;;;;;;;;;;10.40;99.90;;;;;;5052867;28;19921;-73
2022/11/06 02:31:22;;;;;;;;;;;10.40;99.90;;;;;;5052783;28;20390;-72
2022/11/06 02:33:55;;;;;;;;;;;10.50;99.90;;;;;;5052403;28;19920;-73
2022/11/06 02:36:24;;;;;;;;;;;10.50;99.90;;;;;;5052677;28;19920;-72
2022/11/06 02:38:54;;;;;;;;;;;10.50;99.90;;;;;;5034551;28;19932;-73
2022/11/06 02:41:23;;;;;;;;;;;10.40;99.90;;;;;;5052591;28;20287;-72
2022/11/06 02:43:51;;;;;;;;;;;10.30;99.90;;;;;;5050878;28;19921;-72
2022/11/06 02:46:19;;;;;;;;;;;10.40;99.90;;;;;;5051180;28;19925;-73
2022/11/06 02:48:47;;;;;;;;;;;10.40;99.90;;;;;;5052415;28;19964;-72
2022/11/06 02:51:16;;;;;;;;;;;10.40;99.90;;;;;;5052489;28;20349;-73
2022/11/06 02:53:43;;;;;;;;;;;10.40;99.90;;;;;;5051449;28;20316;-73
2022/11/06 02:56:14;;;;;;;;;;;10.50;99.90;;;;;;5050216;28;19937;-73
2022/11/06 02:58:42;;;;;;;;;;;10.70;99.90;;;;;;5050842;28;19964;-73
2022/11/06 03:01:17;;;;;;;;;;;10.40;99.90;;;;;;5051398;28;19924;-73
2022/11/06 03:03:46;;;;;;;;;;;10.50;99.90;;;;;;5051335;28;19980;-72
2022/11/06 03:06:32;;;;;;;;;;;10.50;99.90;;;;;;5051845;28;20409;-72
2022/11/06 03:09:02;;;;;;;;;;;10.60;99.90;;;;;;5033985;28;19971;-72
2022/11/06 03:11:27;;;;;;;;;;;;;;;;;;5050226;28;19924;-73
2022/11/06 03:13:53;;;;;;;;;;;;;;;;;;5050128;28;20479;-72
2022/11/06 03:16:27;;;;;;;;;;;10.50;99.90;;;;;;5050668;28;19920;-72
2022/11/06 03:19:02;;;;;;;;;;;10.60;99.90;;;;;;5050679;28;19932;-72
2022/11/06 03:21:29;;;;;;;;;;;;;;;;;;5050781;28;19921;-73
2022/11/06 03:23:56;;;;;;;;;;;10.50;99.90;;;;;;5050044;28;20019;-72
2022/11/06 03:26:34;;;;;;;;;;;10.40;99.90;;;;;;5051043;28;19921;-72
2022/11/06 03:29:06;;;;;;;;;;;10.60;99.90;;;;;;5050754;28;20018;-72
2022/11/06 03:31:35;;;;;;;;;;;10.70;99.90;;;;;;5050455;28;19928;-73
2022/11/06 03:34:01;;;;;;;;;;;;;;;;;;5049701;28;19927;-72
2022/11/06 03:36:32;;;;;;;;;;;10.50;99.90;;;;;;5050998;28;19921;-72
2022/11/06 03:39:00;;;;;;;;;;;10.50;99.90;;;;;;5051095;28;19925;-72
2022/11/06 03:41:29;;;;;;;;;;;10.40;99.90;;;;;;5050304;28;19920;-73
2022/11/06 03:43:56;;;;;;;;;;;10.70;99.90;;;;;;5050263;28;19972;-73
2022/11/06 03:46:24;;;;;;;;;;;10.60;99.90;;;;;;5052974;28;19928;-72
2022/11/06 03:48:58;;;;;;;;;;;10.70;99.90;;;;;;5050668;28;20275;-72
2022/11/06 03:51:43;;;;;;;;;;;10.70;99.90;;;;;;5050548;28;19928;-72
2022/11/06 03:54:20;;;;;;;;;;;10.70;99.90;;;;;;5050381;28;20417;-72
2022/11/06 03:56:49;;;;;;;;;;;10.70;99.90;;;;;;5049931;28;19921;-72
2022/11/06 03:59:18;;;;;;;;;;;10.60;99.90;;;;;;5051563;28;19925;-72
2022/11/06 04:01:45;;;;;;;;;;;10.40;99.90;;;;;;5051740;28;19921;-73
2022/11/06 04:04:13;;;;;;;;;;;10.70;99.90;;;;;;5049990;28;19920;-72
2022/11/06 04:06:40;;;;;;;;;;;;;;;;;;5050323;28;20382;-73
2022/11/06 04:14:41;;;;;;;;;;;10.70;99.90;;;;;;5050923;28;19921;-73
2022/11/06 04:17:08;;;;;;;;;;;10.70;99.90;;;;;;5033575;28;20397;-73
2022/11/06 04:19:33;;;;;;;;;;;10.60;99.90;;;;;;5049992;28;19940;-73
2022/11/06 04:22:17;;;;;;;;;;;10.50;99.90;;;;;;5051751;28;20378;-73
2022/11/06 04:27:46;;;;;;;;;;;10.40;99.90;;;;;;5054127;28;20282;-73
2022/11/06 04:30:13;;;;;;;;;;;10.50;99.90;;;;;;5053301;28;19921;-73
2022/11/06 04:32:39;;;;;;;;;;;;;;;;;;5053843;28;20028;-73
2022/11/06 04:35:13;;;;;;;;;;;10.70;99.90;;;;;;5053132;28;20071;-73
2022/11/06 04:37:44;;;;;;;;;;;10.60;99.90;;;;;;5053538;28;19920;-72
2022/11/06 04:40:09;;;;;;;;;;;10.50;99.90;;;;;;5054829;28;20016;-73
2022/11/06 04:42:42;;;;;;;;;;;10.60;99.90;;;;;;5055161;28;19964;-73
2022/11/06 04:45:15;;;;;;;;;;;10.70;99.90;;;;;;5053933;28;19921;-73
2022/11/06 04:47:42;;;;;;;;;;;10.60;99.90;;;;;;5053491;28;19927;-73
2022/11/06 04:50:08;;;;;;;;;;;10.50;99.90;;;;;;5052074;28;19921;-73
2022/11/06 04:52:35;;;;;;;;;;;10.70;99.90;;;;;;5053398;28;19928;-73
2022/11/06 04:55:01;;;;;;;;;;;10.50;99.90;;;;;;5052899;28;19921;-73
2022/11/06 04:57:26;;;;;;;;;;;10.80;99.90;;;;;;5053215;28;19927;-73
2022/11/06 04:59:52;;;;;;;;;;;10.50;99.90;;;;;;5053542;28;20303;-73
2022/11/06 05:02:18;;;;;;;;;;;10.60;99.90;;;;;;5054027;28;20012;-72
2022/11/06 05:04:44;;;;;;;;;;;10.70;99.90;;;;;;5052779;28;19921;-73
2022/11/06 05:07:13;;;;;;;;;;;10.50;99.90;;;;;;5053152;28;19960;-73
2022/11/06 05:09:39;;;;;;;;;;;10.80;99.90;;;;;;5052961;28;19928;-73
2022/11/06 05:12:05;;;;;;;;;;;10.50;99.90;;;;;;5054352;28;20470;-73
2022/11/06 05:14:31;;;;;;;;;;;10.40;99.90;;;;;;5052236;28;20012;-73
2022/11/06 05:16:56;;;;;;;;;;;10.60;99.90;;;;;;5054143;28;19924;-73
2022/11/06 05:19:22;;;;;;;;;;;10.70;99.90;;;;;;5052749;28;20333;-73
2022/11/06 05:24:32;;;;;;;;;;;10.60;99.90;;;;;;5053277;28;20015;-73
2022/11/06 05:26:58;;;;;;;;;;;;;;;;;;5053838;28;20007;-73
2022/11/06 05:29:24;;;;;;;;;;;10.50;99.90;;;;;;5052709;28;19928;-73
2022/11/06 05:31:49;;;;;;;;;;;10.70;99.90;;;;;;5054195;28;19928;-73
2022/11/06 05:34:14;;;;;;;;;;;10.60;99.90;;;;;;5052707;28;19956;-73
2022/11/06 05:36:40;;;;;;;;;;;10.50;99.90;;;;;;5053907;28;19928;-73
2022/11/06 05:39:06;;;;;;;;;;;10.50;99.90;;;;;;5052475;28;19935;-73
2022/11/06 05:41:31;;;;;;;;;;;10.50;99.90;;;;;;5036168;28;19924;-73
2022/11/06 05:43:57;;;;;;;;;;;10.70;99.90;;;;;;5051464;28;19920;-73
2022/11/06 05:46:22;;;;;;;;;;;10.70;99.90;;;;;;5052445;28;20016;-73
2022/11/06 05:48:48;;;;;;;;;;;10.60;99.90;;;;;;5052618;28;19921;-73
2022/11/06 05:51:13;;;;;;;;;;;10.70;99.90;;;;;;5051290;28;19970;-73
2022/11/06 05:53:39;;;;;;;;;;;10.60;99.90;;;;;;5051904;28;19983;-73
2022/11/06 05:56:04;;;;;;;;;;;10.60;99.90;;;;;;5051703;28;19931;-73
2022/11/06 05:58:30;;;;;;;;;;;;;;;;;;5052694;28;19920;-73
2022/11/06 06:00:56;;;;;;;;;;;10.50;99.90;;;;;;5051925;28;19968;-73
2022/11/06 06:03:22;;;;;;;;;;;10.40;99.90;;;;;;5051878;28;19935;-73
2022/11/06 06:05:48;;;;;;;;;;;10.50;99.90;;;;;;5052392;28;20008;-72
2022/11/06 06:08:13;;;;;;;;;;;10.70;99.90;;;;;;5035075;28;19928;-72
2022/11/06 06:10:40;;;;;;;;;;;10.60;99.90;;;;;;5051647;28;19925;-72
2022/11/06 06:13:05;;;;;;;;;;;10.70;99.90;;;;;;5051836;28;19924;-72
2022/11/06 06:15:31;;;;;;;;;;;10.80;99.90;;;;;;5052329;28;19928;-73
2022/11/06 06:17:56;;;;;;;;;;;;;;;;;;5080231;22;20718;-69
2022/11/06 06:20:22;;;;;;;;;;;10.60;99.90;;;;;;5091298;28;19927;-70
2022/11/06 06:22:54;;;;;;;;;;;10.60;99.90;;;;;;5091870;28;19923;-70
2022/11/06 06:25:20;;;;;;;;;;;10.50;99.90;;;;;;5096900;28;20002;-72
2022/11/06 06:27:45;;;;;;;;;;;10.40;99.90;;;;;;5083952;28;19972;-72
2022/11/06 06:30:11;;;;;;;;;;;10.60;99.90;;;;;;5101633;28;19988;-72
2022/11/06 06:32:37;;;;;;;;;;;10.50;99.90;;;;;;5098973;28;20381;-72
2022/11/06 06:35:02;;;;;;;;;;;10.50;99.90;;;;;;5075218;28;20393;-72
2022/11/06 06:37:28;;;;;;;;;;;10.60;99.90;;;;;;5075316;28;19927;-72
2022/11/06 06:39:53;;;;;;;;;;;10.40;99.90;;;;;;5083928;28;19989;-72
2022/11/06 06:42:18;;;;;;;;;;;10.60;99.90;;;;;;5095578;28;20006;-72
2022/11/06 06:44:44;;;;;;;;;;;10.40;99.90;;;;;;5112927;28;20385;-72
2022/11/06 06:47:09;;;;;;;;;;;10.50;99.90;;;;;;5094081;28;19927;-72
2022/11/06 06:49:35;;;;;;;;;;;10.30;99.90;;;;;;5094802;28;20412;-72
2022/11/06 06:52:00;;;;;;;;;;;10.20;99.90;;;;;;5094965;28;19959;-72
2022/11/06 06:54:26;;;;;;;;;;;10.70;99.90;;;;;;5094170;28;19946;-72
2022/11/06 06:56:51;;;;;;;;;;;10.60;99.90;;;;;;5093308;28;20006;-72
2022/11/06 06:59:17;;;;;;;;;;;10.50;99.90;;;;;;5113129;28;19924;-72
2022/11/06 07:01:42;;;;;;;;;;;10.40;99.90;;;;;;5078203;28;19927;-72
2022/11/06 07:04:09;;;;;;;;;;;10.40;99.90;;;;;;5094342;28;19959;-72
2022/11/06 07:06:34;;;;;;;;;;;10.40;99.90;;;;;;5112823;28;20048;-72
2022/11/06 07:09:00;;;;;;;;;;;10.40;99.90;;;;;;5094685;28;19963;-73
2022/11/06 07:11:25;;;;;;;;;;;10.70;99.90;;;;;;5092970;28;20373;-73
2022/11/06 07:13:51;;;;;;;;;;;10.30;99.90;;;;;;5094382;28;20301;-71
2022/11/06 07:16:17;;;;;;;;;;;10.70;99.90;;;;;;5112626;28;19919;-73
2022/11/06 07:18:42;;;;;;;;;;;10.70;99.90;;;;;;5094448;28;19926;-72
2022/11/06 07:21:09;;;;;;;;;;;10.50;99.90;;;;;;5094623;28;19924;-72
2022/11/06 07:23:35;;;;;;;;;;;10.50;99.90;;;;;;5094620;28;20569;-73
2022/11/06 07:26:01;;;;;;;;;;;;;;;;;;5094064;28;19927;-73
2022/11/06 07:28:27;;;;;;;;;;;10.40;99.90;;;;;;5092729;28;19920;-72
2022/11/06 07:30:56;;;;;;;;;;;10.50;99.90;;;;;;5083400;28;19920;-73
2022/11/06 07:33:21;;;;;;;;;;;10.40;99.90;;;;;;5074544;28;19920;-72
2022/11/06 07:35:47;;;;;;;;;;;10.70;99.90;;;;;;5056784;28;19920;-72
2022/11/06 07:38:12;;;;;;;;;;;10.50;99.90;;;;;;5092232;28;19993;-72
2022/11/06 07:40:38;;;;;;;;;;;10.60;99.90;;;;;;5075314;28;19931;-71
2022/11/06 07:43:04;;;;;;;;;;;10.60;99.90;;;;;;5083486;28;19919;-73
2022/11/06 07:45:30;;;;;;;;;;;10.60;99.90;;;;;;5079590;28;19927;-73
2022/11/06 07:47:55;;;;;;;;;;;10.80;99.90;;;;;;5092308;28;20289;-72
2022/11/06 07:50:21;;;;;;;;;;;10.80;99.90;;;;;;5100906;28;19920;-72
2022/11/06 07:52:46;;;;;;;;;;;10.60;99.90;;;;;;5081443;28;19939;-73
2022/11/06 07:55:12;;;;;;;;;;;10.50;99.90;;;;;;5091398;28;20003;-73
2022/11/06 07:57:37;;;;;;;;;;;10.60;99.90;;;;;;5093537;28;19920;-73
2022/11/06 08:00:04;;;;;;;;;;;10.50;99.90;;;;;;5078064;28;19928;-73
2022/11/06 08:02:29;;;;;;;;;;;10.50;99.90;;;;;;5079052;28;20405;-73
2022/11/06 08:04:55;;;;;;;;;;;10.70;99.90;;;;;;5077057;28;20203;-73
2022/11/06 08:07:20;;;;;;;;;;;10.50;99.90;;;;;;5094444;28;19943;-73
2022/11/06 08:09:46;;;;;;;;;;;10.80;99.90;;;;;;5097226;28;20006;-73
2022/11/06 08:12:13;;;;;;;;;;;11.70;99.90;;;;;;5071890;28;19924;-73
2022/11/06 08:14:39;;;;;;;;;;;10.80;99.90;;;;;;5060209;28;19920;-73
2022/11/06 08:17:04;;;;;;;;;;;10.70;99.90;;;;;;5078047;28;19942;-73
2022/11/06 08:19:30;;;;;;;;;;;10.80;99.90;;;;;;5090320;28;20293;-73
2022/11/06 08:21:55;;;;;;;;;;;10.70;99.90;;;;;;5058608;28;19924;-73
2022/11/06 08:24:21;;;;;;;;;;;10.60;99.90;;;;;;5081207;28;19932;-73
2022/11/06 08:26:47;;;;;;;;;;;10.80;99.90;;;;;;5084476;28;20440;-72
2022/11/06 08:29:12;;;;;;;;;;;10.70;99.90;;;;;;5106192;28;20369;-73
2022/11/06 08:31:38;;;;;;;;;;;10.80;99.90;;;;;;5082671;28;20646;-73
2022/11/06 08:34:04;;;;;;;;;;;10.60;99.90;;;;;;5098353;28;19924;-73
2022/11/06 08:36:29;;;;;;;;;;;10.40;99.90;;;;;;5077860;28;19924;-72
2022/11/06 08:38:55;;;;;;;;;;;10.70;99.90;;;;;;5099632;28;19989;-73
2022/11/06 08:41:20;;;;;;;;;;;10.60;99.90;;;;;;5099928;28;20335;-73
2022/11/06 08:43:50;;;;;;;;;;;10.80;99.90;;;;;;5080869;28;19928;-73
2022/11/06 08:46:15;;;;;;;;;;;10.90;99.90;;;;;;5093527;28;19919;-73
2022/11/06 08:48:41;;;;;;;;;;;10.90;99.90;;;;;;5082262;28;19923;-73
2022/11/06 08:51:06;;;;;;;;;;;10.90;99.90;;;;;;5070903;28;19939;-73
2022/11/06 08:53:32;;;;;;;;;;;10.90;99.90;;;;;;5093525;28;19927;-72
2022/11/06 08:55:58;;;;;;;;;;;10.90;99.90;;;;;;5095066;28;19924;-73
2022/11/06 08:58:23;;;;;;;;;;;10.90;99.90;;;;;;5089574;28;19924;-72
2022/11/06 09:00:49;;;;;;;;;;;;;;;;;;5083790;28;20032;-72
2022/11/06 09:03:16;;;;;;;;;;;11.10;99.90;;;;;;5094407;28;20002;-72
2022/11/06 09:05:42;;;;;;;;;;;11.10;99.90;;;;;;5059628;28;19927;-73
2022/11/06 09:08:08;;;;;;;;;;;11.00;99.90;;;;;;5077115;28;19924;-72
2022/11/06 09:10:34;;;;;;;;;;;11.00;99.90;;;;;;5080744;28;20006;-72
2022/11/06 09:12:59;;;;;;;;;;;10.90;99.90;;;;;;5077525;28;19921;-72
2022/11/06 09:15:25;;;;;;;;;;;11.00;99.90;;;;;;5071359;28;20042;-73
2022/11/06 09:17:51;;;;;;;;;;;10.90;99.90;;;;;;5098442;28;20445;-72
2022/11/06 09:20:18;;;;;;;;;;;11.00;99.90;;;;;;5075199;28;19932;-71
2022/11/06 09:22:44;;;;;;;;;;;11.00;99.90;;;;;;5098932;28;19924;-72
2022/11/06 09:25:09;;;;;;;;;;;11.00;99.90;;;;;;5095102;28;19924;-72
2022/11/06 09:27:48;;;;;;;;;;;11.20;99.90;;;;;;5099538;28;19926;-73
2022/11/06 09:30:15;;;;;;;;;;;11.10;99.90;;;;;;5098746;28;20015;-73
2022/11/06 09:32:44;;;;;;;;;;;10.60;99.90;;;;;;5082291;28;20443;-72
2022/11/06 09:35:10;;;;;;;;;;;11.00;99.90;;;;;;5078652;28;20010;-72
2022/11/06 09:37:35;;;;;;;;;;;11.10;99.90;;;;;;5080918;28;20397;-72
2022/11/06 09:40:00;;;;;;;;;;;11.10;99.90;;;;;;5066845;28;20251;-72
2022/11/06 09:42:49;;;;;;;;;;;10.90;99.90;;;;;;5064190;28;19928;-73
2022/11/06 09:45:22;;;;;;;;;;;11.10;99.90;;;;;;5084615;28;19931;-73
2022/11/06 09:48:08;;;;;;;;;;;11.20;99.90;;;;;;5088561;28;20285;-73
2022/11/06 09:50:36;;;;;;;;;;;11.00;99.90;;;;;;5058081;28;19919;-74
2022/11/06 09:53:10;;;;;;;;;;;11.10;99.90;;;;;;5096222;28;19920;-73
2022/11/06 09:55:41;;;;;;;;;;;11.30;99.90;;;;;;5095459;28;19927;-73
2022/11/06 09:58:29;;;;;;;;;;;11.20;99.90;;;;;;5096039;28;19953;-74
2022/11/06 10:00:58;;;;;;;;;;;11.20;99.90;;;;;;5100698;28;19939;-74
2022/11/06 10:03:41;;;;;;;;;;;11.20;99.90;;;;;;5079264;28;20022;-74
2022/11/06 10:06:06;;;;;;;;;;;11.20;99.90;;;;;;5106790;28;19923;-74
2022/11/06 10:08:32;;;;;;;;;;;11.30;99.90;;;;;;5068975;28;19924;-74
2022/11/06 10:11:13;;;;;;;;;;;11.30;99.90;;;;;;5075564;28;19926;-74
2022/11/06 10:13:58;;;;;;;;;;;11.30;99.90;;;;;;5079195;28;19924;-74
2022/11/06 10:16:37;;;;;;;;;;;11.50;99.90;;;;;;5092195;28;19919;-73
2022/11/06 10:19:03;;;;;;;;;;;11.30;99.90;;;;;;5090228;28;19920;-74
2022/11/06 10:21:47;;;;;;;;;;;11.50;99.90;;;;;;5074168;28;19924;-74
2022/11/06 10:24:19;;;;;;;;;;;11.50;99.90;;;;;;5081677;28;20378;-73
2022/11/06 10:26:47;;;;;;;;;;;11.50;99.90;;;;;;5075557;28;20317;-74
2022/11/06 10:29:45;;;;;;;;;;;11.40;99.90;;;;;;5092308;28;19920;-74
2022/11/06 10:32:20;;;;;;;;;;;11.70;99.90;;;;;;5034822;28;19920;-74
2022/11/06 10:34:48;;;;;;;;;;;11.50;99.90;;;;;;5074221;28;19924;-73
2022/11/06 10:37:25;;;;;;;;;;;11.60;99.90;;;;;;5080629;28;20006;-74
2022/11/06 10:39:51;;;;;;;;;;;11.70;99.90;;;;;;5083511;28;20378;-74
2022/11/06 10:42:18;;;;;;;;;;;11.60;99.90;;;;;;5098094;28;19923;-73
2022/11/06 10:44:48;;;;;;;;;;;12.10;99.90;;;;;;5084799;28;19927;-73
2022/11/06 10:47:13;;;;;;;;;;;11.60;99.90;;;;;;5085084;28;20020;-73
2022/11/06 10:49:43;;;;;;;;;;;11.60;99.90;;;;;;5092193;28;19965;-73
2022/11/06 10:52:17;;;;;;;;;;;11.60;99.90;;;;;;5111429;28;19967;-72
2022/11/06 10:54:55;;;;;;;;;;;11.80;99.90;;;;;;5074217;28;20323;-73
2022/11/06 10:57:40;;;;;;;;;;;11.70;99.90;;;;;;5066446;28;19920;-74
2022/11/06 11:00:08;;;;;;;;;;;11.80;99.90;;;;;;5086506;28;19936;-74
2022/11/06 11:02:35;;;;;;;;;;;11.70;99.90;;;;;;5087780;28;19920;-74
2022/11/06 11:05:01;;;;;;;;;;;11.70;99.90;;;;;;5101983;28;19919;-74
2022/11/06 11:07:30;;;;;;;;;;;12.00;99.90;;;;;;5084370;28;19920;-74
2022/11/06 11:09:55;;;;;;;;;;;11.70;99.90;;;;;;5083665;28;20401;-74
2022/11/06 11:12:29;;;;;;;;;;;11.90;99.90;;;;;;5069787;28;19924;-74
2022/11/06 11:15:05;;;;;;;;;;;11.90;99.90;;;;;;5120457;27;19988;-74
2022/11/06 11:17:31;;;;;;;;;;;11.80;99.90;;;;;;5108303;27;19970;-74
2022/11/06 11:19:56;;;;;;;;;;;12.00;99.90;;;;;;5090369;28;20336;-73
2022/11/06 11:22:23;;;;;;;;;;;11.80;99.90;;;;;;5060896;28;20409;-74
2022/11/06 11:25:00;;;;;;;;;;;11.60;99.90;;;;;;5083196;28;20308;-74
2022/11/06 11:27:26;;;;;;;;;;;11.80;99.90;;;;;;5095290;28;20002;-74
2022/11/06 11:29:52;;;;;;;;;;;12.00;99.90;;;;;;5113078;28;19920;-74
2022/11/06 11:32:19;;;;;;;;;;;12.00;99.90;;;;;;5115339;28;19920;-74
2022/11/06 11:34:46;;;;;;;;;;;11.90;99.90;;;;;;5101090;28;19920;-74
2022/11/06 11:37:28;;;;;;;;;;;11.80;99.90;;;;;;5119627;28;20293;-74
2022/11/06 11:39:53;;;;;;;;;;;11.90;99.90;;;;;;5100835;28;19924;-74
2022/11/06 11:42:27;;;;;;;;;;;12.20;99.90;;;;;;5101243;28;20011;-74
2022/11/06 11:45:08;;;;;;;;;;;12.20;99.90;;;;;;5100448;28;20297;-74
2022/11/06 11:47:35;;;;;;;;;;;12.00;99.90;;;;;;5100850;28;20294;-74
2022/11/06 11:50:30;;;;;;;;;;;12.00;99.90;;;;;;5069104;28;19920;-74
2022/11/06 11:52:57;;;;;;;;;;;12.10;99.90;;;;;;5059954;28;20282;-74
2022/11/06 11:55:26;;;;;;;;;;;12.20;99.90;;;;;;5100220;28;20373;-74
2022/11/06 11:57:54;;;;;;;;;;;12.30;99.90;;;;;;5100574;28;19923;-74
2022/11/06 12:00:21;;;;;;;;;;;12.20;99.90;;;;;;5100741;28;19938;-74
2022/11/06 12:02:48;;;;;;;;;;;12.50;99.90;;;;;;5083743;28;19936;-74
2022/11/06 12:05:16;;;;;;;;;;;12.60;99.90;;;;;;5083035;28;19939;-74
2022/11/06 12:07:50;;;;;;;;;;;12.50;99.90;;;;;;5100988;28;20270;-74
2022/11/06 12:10:27;;;;;;;;;;;12.50;99.90;;;;;;5100743;28;20179;-74
2022/11/06 12:12:54;;;;;;;;;;;12.40;99.90;;;;;;5100757;28;19920;-74
2022/11/06 12:15:38;;;;;;;;;;;12.50;99.90;;;;;;5099963;28;19919;-74
2022/11/06 12:18:14;;;;;;;;;;;12.70;99.90;;;;;;5118633;28;19965;-74
2022/11/06 12:20:40;;;;;;;;;;;12.30;99.90;;;;;;5139738;22;19928;-74
2022/11/06 12:23:10;;;;;;;;;;;12.60;99.90;;;;;;5117025;28;20033;-74
2022/11/06 12:25:38;;;;;;;;;;;12.70;99.90;;;;;;5118019;27;19927;-75
2022/11/06 12:28:09;;;;;;;;;;;12.80;99.90;;;;;;5118274;27;20411;-74
2022/11/06 12:30:35;;;;;;;;;;;12.80;99.90;;;;;;5117252;28;19920;-74
2022/11/06 12:33:04;;;;;;;;;;;12.80;99.90;;;;;;5118814;27;19930;-74
2022/11/06 12:35:36;;;;;;;;;;;12.70;99.90;;;;;;5117742;27;19926;-74
2022/11/06 12:38:02;;;;;;;;;;;12.70;99.90;;;;;;5118465;27;20437;-74
2022/11/06 12:40:29;;;;;;;;;;;12.60;99.90;;;;;;5117326;28;20006;-74
2022/11/06 12:43:16;;;;;;;;;;;12.70;99.90;;;;;;5117345;28;19942;-74
2022/11/06 12:45:56;;;;;;;;;;;12.60;99.90;;;;;;5112634;28;20006;-75
2022/11/06 12:48:40;;;;;;;;;;;12.40;99.90;;;;;;5114151;28;19920;-75
2022/11/06 12:51:06;;;;;;;;;;;;;;;;;;5107050;28;19924;-75
2022/11/06 12:53:37;;;;;;;;;;;12.60;99.90;;;;;;5093486;28;20030;-74
2022/11/06 12:56:23;;;;;;;;;;;12.50;99.90;;;;;;5098279;28;20302;-74
2022/11/06 12:59:11;;;;;;;;;;;12.40;99.90;;;;;;5094689;28;19931;-75
2022/11/06 13:01:37;;;;;;;;;;;12.50;99.90;;;;;;5064648;28;20378;-73
2022/11/06 13:04:05;;;;;;;;;;;12.20;99.90;;;;;;5095875;28;19941;-73
2022/11/06 13:06:49;;;;;;;;;;;12.20;99.90;;;;;;5113697;28;19959;-73
2022/11/06 13:09:38;;;;;;;;;;;12.10;99.90;;;;;;5113541;28;20374;-73
2022/11/06 13:12:11;;;;;;;;;;;12.30;99.90;;;;;;5089190;28;19919;-73
2022/11/06 13:14:40;;;;;;;;;;;12.20;99.90;;;;;;5114115;28;20027;-73
2022/11/06 13:17:10;;;;;;;;;;;12.30;99.90;;;;;;5107338;28;19999;-73
2022/11/06 13:19:53;;;;;;;;;;;12.20;99.90;;;;;;5113784;28;20281;-74
2022/11/06 13:22:21;;;;;;;;;;;12.10;99.90;;;;;;5097077;28;20388;-74
2022/11/06 13:25:07;;;;;;;;;;;11.90;99.90;;;;;;5083200;28;20011;-74
2022/11/06 13:27:38;;;;;;;;;;;11.90;99.90;;;;;;5062040;28;19970;-74
2022/11/06 13:30:23;;;;;;;;;;;12.10;99.90;;;;;;5114345;28;20407;-74
2022/11/06 13:33:00;;;;;;;;;;;12.20;99.90;;;;;;5129776;27;19920;-74
2022/11/06 13:35:26;;;;;;;;;;;11.80;99.90;;;;;;5112900;28;19920;-74
2022/11/06 13:37:53;;;;;;;;;;;12.10;99.90;;;;;;5114167;28;19924;-73
2022/11/06 13:40:30;;;;;;;;;;;11.80;99.90;;;;;;5103726;28;19931;-73
2022/11/06 13:43:01;;;;;;;;;;;11.80;99.90;;;;;;5099213;28;19981;-74
2022/11/06 13:45:31;;;;;;;;;;;11.90;99.90;;;;;;5101723;28;20016;-74
2022/11/06 13:48:16;;;;;;;;;;;11.80;99.90;;;;;;5101242;28;19920;-73
2022/11/06 13:51:00;;;;;;;;;;;12.10;99.90;;;;;;5099543;28;19927;-73
2022/11/06 13:53:45;;;;;;;;;;;11.90;99.90;;;;;;5112174;28;19920;-73
2022/11/06 13:56:14;;;;;;;;;;;12.10;99.90;;;;;;5070569;28;19920;-73
2022/11/06 13:58:40;;;;;;;;;;;;;;;;;;5093392;28;19924;-73
2022/11/06 14:01:12;;;;;;;;;;;12.00;99.90;;;;;;5092280;28;19931;-73
2022/11/06 14:04:03;;;;;;;;;;;12.00;99.90;;;;;;5093641;28;19978;-73
2022/11/06 14:06:30;;;;;;;;;;;12.00;99.90;;;;;;5087135;28;20011;-73
2022/11/06 14:08:58;;;;;;;;;;;12.00;99.90;;;;;;5092404;28;20344;-73
2022/11/06 14:11:28;;;;;;;;;;;12.00;99.90;;;;;;5111438;28;19926;-73
2022/11/06 14:14:14;;;;;;;;;;;11.90;99.90;;;;;;5111532;28;19927;-72
2022/11/06 14:16:42;;;;;;;;;;;12.30;99.90;;;;;;5094780;28;19920;-73
2022/11/06 14:19:19;;;;;;;;;;;11.90;99.90;;;;;;5111982;28;19924;-73
2022/11/06 14:21:52;;;;;;;;;;;11.80;99.90;;;;;;5112037;28;19920;-73
2022/11/06 14:24:33;;;;;;;;;;;11.90;99.90;;;;;;5112917;28;19919;-74
2022/11/06 14:27:00;;;;;;;;;;;11.80;99.90;;;;;;5112351;28;20297;-73
2022/11/06 14:29:26;;;;;;;;;;;12.00;99.90;;;;;;5095845;28;20341;-73
2022/11/06 14:32:00;;;;;;;;;;;11.70;99.90;;;;;;5091814;28;19970;-73
2022/11/06 14:34:29;;;;;;;;;;;12.00;99.90;;;;;;5091086;28;20386;-73
2022/11/06 14:36:55;;;;;;;;;;;12.00;99.90;;;;;;5091712;28;20015;-73
2022/11/06 14:39:39;;;;;;;;;;;11.90;99.90;;;;;;5091413;28;20015;-73
2022/11/06 14:42:05;;;;;;;;;;;11.90;99.90;;;;;;5092654;28;19924;-73
2022/11/06 14:44:38;;;;;;;;;;;11.80;99.90;;;;;;5090909;28;19920;-73
2022/11/06 14:47:05;;;;;;;;;;;11.80;99.90;;;;;;5091561;28;20481;-73
2022/11/06 14:49:33;;;;;;;;;;;11.60;99.90;;;;;;5092734;28;19920;-73